Novomar — 5BCT2 — position and weather

sailwx.info

Track history (hours):
 
Tides and Currents Weather Stations Pressure Air Temp Water Temp Dewpoint Dewpoint Depression Visibility Wind Speed Wind Dir Waves Ship Positions

Novomar

Last reported at 2016-Jun-20 19:04 UTC. Time now 2016-Jun-28 15:13 UTC.
Position N 55°55' E 016°04'.

Length 89 m; draft 3.2 m.

Type: Ship. MMSI: 210974000.

Date/timePositionNaut miles runAvg speedWind from/ knotsBaromVisibWave heightAir tempDewpointWater temp
2016-Jun-20 19:04N 55°55' E 016°04'611.0
2016-Jun-20 18:31N 55°55' E 015°53'3311.2
2016-Jun-20 15:33N 55°55' E 014°54'19 1.9
2016-Jun-20 05:26N 55°56' E 014°20'0 0.0
2016-Jun-20 04:26N 55°56' E 014°20'0 0.0
2016-Jun-20 03:26N 55°56' E 014°20'0 0.0
2016-Jun-20 01:20N 55°56' E 014°20'0 0.0
2016-Jun-20 00:32N 55°56' E 014°20'0 0.0
2016-Jun-19 21:26N 55°56' E 014°20'0 0.0
2016-Jun-18 22:25N 55°56' E 014°20'0 0.0
2016-Jun-18 21:31N 55°56' E 014°20'0 0.0
2016-Jun-18 20:31N 55°56' E 014°20'0 0.0
2016-Jun-18 17:31N 55°56' E 014°20'14 1.1
2016-Jun-18 04:34N 55°44' E 014°33'8 7.9
2016-Jun-18 03:34N 55°36' E 014°34'8 7.9
2016-Jun-18 02:34N 55°28' E 014°35'7 7.3
2016-Jun-18 01:34N 55°21' E 014°34'8 8.0
2016-Jun-18 00:34N 55°15' E 014°25'8 8.0
2016-Jun-17 23:33N 55°09' E 014°16'8 8.3
2016-Jun-17 22:34N 55°02' E 014°09'8 8.2
2016-Jun-17 21:34N 54°56' E 013°59'8 7.8
2016-Jun-17 20:34N 54°48' E 013°58'51 1.1
2016-Jun-15 22:33N 55°10' E 012°38'9 8.8
2016-Jun-15 21:33N 55°19' E 012°38'9 8.9
2016-Jun-15 20:33N 55°28' E 012°40'9 8.9
2016-Jun-15 19:33N 55°37' E 012°42'8 8.3
2016-Jun-15 18:33N 55°45' E 012°41'9 8.6
2016-Jun-15 17:33N 55°53' E 012°38'9 8.7
2016-Jun-15 16:33N 56°02' E 012°39'8 8.2
2016-Jun-15 15:33N 56°09' E 012°30'4 2.9
2016-Jun-15 14:19N 56°12' E 012°33'0 0.0
2016-Jun-15 13:31N 56°12' E 012°33'0 0.0
2016-Jun-15 12:25N 56°12' E 012°33'0 0.0
2016-Jun-15 10:31N 56°12' E 012°33'0 0.0
2016-Jun-15 09:31N 56°12' E 012°33'0 0.0
2016-Jun-15 07:25N 56°12' E 012°33'0 0.0
2016-Jun-15 06:31N 56°12' E 012°33'0 0.0
2016-Jun-15 05:31N 56°12' E 012°33'1 0.1
2016-Jun-14 18:33N 56°12' E 012°31'8 8.4
2016-Jun-14 17:34N 56°04' E 012°38'1110.7
2016-Jun-14 16:33N 55°54' E 012°45'1010.3
2016-Jun-14 15:33N 55°44' E 012°41'1111.0
2016-Jun-14 14:33N 55°33' E 012°42'1010.3
2016-Jun-14 13:33N 55°23' E 012°41'9 8.8
2016-Jun-14 12:33N 55°16' E 012°51'1010.4
2016-Jun-14 11:33N 55°15' E 013°09'2110.2
2016-Jun-14 09:30N 55°14' E 013°46'1010.4
2016-Jun-14 08:33N 55°14' E 014°03'9 9.3
2016-Jun-14 07:33N 55°16' E 014°19'19 9.4
2016-Jun-14 05:33N 55°29' E 014°42'10 9.5
2016-Jun-14 04:33N 55°34' E 014°57'10 9.8
2016-Jun-14 03:33N 55°39' E 015°12'155 9.6
2016-Jun-13 11:19N 57°45' E 017°56'4810.2
2016-Jun-13 06:33N 58°28' E 018°40'1010.5
2016-Jun-13 05:33N 58°37' E 018°50'30 9.9
2016-Jun-13 02:33N 59°03' E 019°16'  
Track history (hours):
 
Tides and Currents Weather Stations Pressure Air Temp Water Temp Dewpoint Dewpoint Depression Visibility Wind Speed Wind Dir Waves Ship Positions

Novomar

Last reported at 2016-Jun-20 19:04 UTC. Time now 2016-Jun-28 15:13 UTC.
Position N 55°55' E 016°04'.

Length 89 m; draft 3.2 m.

Type: Ship. MMSI: 210974000.

Date/timePositionNaut miles runAvg speedWind from/ knotsBaromVisibWave heightAir tempDewpointWater temp
2016-Jun-20 19:04N 55°55' E 016°04'611.0
2016-Jun-20 18:31N 55°55' E 015°53'3311.2
2016-Jun-20 15:33N 55°55' E 014°54'19 1.9
2016-Jun-20 05:26N 55°56' E 014°20'0 0.0
2016-Jun-20 04:26N 55°56' E 014°20'0 0.0
2016-Jun-20 03:26N 55°56' E 014°20'0 0.0
2016-Jun-20 01:20N 55°56' E 014°20'0 0.0
2016-Jun-20 00:32N 55°56' E 014°20'0 0.0
2016-Jun-19 21:26N 55°56' E 014°20'0 0.0
2016-Jun-18 22:25N 55°56' E 014°20'0 0.0
2016-Jun-18 21:31N 55°56' E 014°20'0 0.0
2016-Jun-18 20:31N 55°56' E 014°20'0 0.0
2016-Jun-18 17:31N 55°56' E 014°20'14 1.1
2016-Jun-18 04:34N 55°44' E 014°33'8 7.9
2016-Jun-18 03:34N 55°36' E 014°34'8 7.9
2016-Jun-18 02:34N 55°28' E 014°35'7 7.3
2016-Jun-18 01:34N 55°21' E 014°34'8 8.0
2016-Jun-18 00:34N 55°15' E 014°25'8 8.0
2016-Jun-17 23:33N 55°09' E 014°16'8 8.3
2016-Jun-17 22:34N 55°02' E 014°09'8 8.2
2016-Jun-17 21:34N 54°56' E 013°59'8 7.8
2016-Jun-17 20:34N 54°48' E 013°58'51 1.1
2016-Jun-15 22:33N 55°10' E 012°38'9 8.8
2016-Jun-15 21:33N 55°19' E 012°38'9 8.9
2016-Jun-15 20:33N 55°28' E 012°40'9 8.9
2016-Jun-15 19:33N 55°37' E 012°42'8 8.3
2016-Jun-15 18:33N 55°45' E 012°41'9 8.6
2016-Jun-15 17:33N 55°53' E 012°38'9 8.7
2016-Jun-15 16:33N 56°02' E 012°39'8 8.2
2016-Jun-15 15:33N 56°09' E 012°30'4 2.9
2016-Jun-15 14:19N 56°12' E 012°33'0 0.0
2016-Jun-15 13:31N 56°12' E 012°33'0 0.0
2016-Jun-15 12:25N 56°12' E 012°33'0 0.0
2016-Jun-15 10:31N 56°12' E 012°33'0 0.0
2016-Jun-15 09:31N 56°12' E 012°33'0 0.0
2016-Jun-15 07:25N 56°12' E 012°33'0 0.0
2016-Jun-15 06:31N 56°12' E 012°33'0 0.0
2016-Jun-15 05:31N 56°12' E 012°33'1 0.1
2016-Jun-14 18:33N 56°12' E 012°31'8 8.4
2016-Jun-14 17:34N 56°04' E 012°38'1110.7
2016-Jun-14 16:33N 55°54' E 012°45'1010.3
2016-Jun-14 15:33N 55°44' E 012°41'1111.0
2016-Jun-14 14:33N 55°33' E 012°42'1010.3
2016-Jun-14 13:33N 55°23' E 012°41'9 8.8
2016-Jun-14 12:33N 55°16' E 012°51'1010.4
2016-Jun-14 11:33N 55°15' E 013°09'2110.2
2016-Jun-14 09:30N 55°14' E 013°46'1010.4
2016-Jun-14 08:33N 55°14' E 014°03'9 9.3
2016-Jun-14 07:33N 55°16' E 014°19'19 9.4
2016-Jun-14 05:33N 55°29' E 014°42'10 9.5
2016-Jun-14 04:33N 55°34' E 014°57'10 9.8
2016-Jun-14 03:33N 55°39' E 015°12'155 9.6
2016-Jun-13 11:19N 57°45' E 017°56'4810.2
2016-Jun-13 06:33N 58°28' E 018°40'1010.5
2016-Jun-13 05:33N 58°37' E 018°50'30 9.9
2016-Jun-13 02:33N 59°03' E 019°16'  

Dump ship's entire track history